Time;durP1;ratioP1;P1;durP2;ratioP2;P2;SDS_P1;SDS_P2;PMS_P1;PMS_P2;Temp;Humidity;BMP_temperature;BMP_pressure;BME280_temperature;BME280_humidity;BME280_pressure;Samples;Min_cycle;Max_cycle;Signal;HPM_P1;HPM_P2
2022/04/08 00:00:47;;;;;;;7.70;1.15;;;6.10;99.90;;;;;;5012042;28;20046;-75
2022/04/08 00:03:12;;;;;;;6.80;1.20;;;6.10;99.90;;;;;;5013197;28;20080;-74
2022/04/08 00:05:38;;;;;;;8.98;1.52;;;6.10;99.90;;;;;;4995382;28;20045;-74
2022/04/08 00:08:04;;;;;;;6.90;1.52;;;6.10;99.90;;;;;;5011077;28;20038;-74
2022/04/08 00:10:29;;;;;;;9.65;1.60;;;6.20;99.90;;;;;;5012554;28;20041;-74
2022/04/08 00:12:55;;;;;;;6.93;1.30;;;6.10;99.90;;;;;;5011781;28;20493;-74
2022/04/08 00:15:21;;;;;;;5.15;0.77;;;6.10;99.90;;;;;;5011694;28;20045;-74
2022/04/08 00:17:46;;;;;;;9.25;1.58;;;6.10;99.90;;;;;;5011454;28;20038;-74
2022/04/08 00:20:12;;;;;;;5.82;1.02;;;6.20;99.90;;;;;;5011353;28;20037;-74
2022/04/08 00:22:42;;;;;;;7.18;1.10;;;6.10;99.90;;;;;;4998105;28;20034;-73
2022/04/08 00:25:11;;;;;;;4.38;0.88;;;6.00;99.90;;;;;;4998472;28;20091;-74
2022/04/08 00:27:38;;;;;;;7.53;1.10;;;6.20;99.90;;;;;;5014728;28;20069;-74
2022/04/08 00:30:05;;;;;;;5.53;0.90;;;6.00;99.90;;;;;;5014859;28;20473;-74
2022/04/08 00:32:30;;;;;;;8.25;1.20;;;6.00;99.90;;;;;;5015656;28;20103;-73
2022/04/08 00:34:58;;;;;;;6.75;0.85;;;5.90;99.90;;;;;;4999357;28;20485;-74
2022/04/08 00:37:23;;;;;;;6.82;1.10;;;6.00;99.90;;;;;;4997748;28;20036;-74
2022/04/08 00:39:50;;;;;;;7.13;1.02;;;6.00;99.90;;;;;;4999225;28;20128;-74
2022/04/08 00:42:15;;;;;;;8.15;1.45;;;6.00;99.90;;;;;;5014534;28;20048;-74
2022/04/08 00:44:41;;;;;;;5.70;0.70;;;6.00;99.90;;;;;;4999200;28;20049;-74
2022/04/08 00:47:06;;;;;;;3.95;0.70;;;6.00;99.90;;;;;;5013337;28;20033;-74
2022/04/08 00:49:34;;;;;;;1.75;0.38;;;5.90;99.90;;;;;;5015673;28;20048;-74
2022/04/08 00:52:00;;;;;;;4.38;0.68;;;5.70;99.90;;;;;;5014511;28;20041;-74
2022/04/08 00:54:27;;;;;;;2.70;0.52;;;5.60;99.90;;;;;;5015479;28;20041;-74
2022/04/08 00:56:53;;;;;;;3.78;0.55;;;5.50;99.90;;;;;;5014168;28;20045;-74
2022/04/08 00:59:18;;;;;;;4.47;0.52;;;5.50;99.90;;;;;;5015079;28;20498;-74
2022/04/08 01:01:44;;;;;;;4.10;0.60;;;5.40;99.90;;;;;;4998054;28;20064;-74
2022/04/08 01:04:10;;;;;;;2.85;0.55;;;5.40;99.90;;;;;;5015309;28;20497;-74
2022/04/08 01:06:36;;;;;;;6.25;0.80;;;5.30;99.90;;;;;;4998097;28;20496;-74
2022/04/08 01:09:02;;;;;;;2.83;0.70;;;5.30;99.90;;;;;;5014250;28;20044;-74
2022/04/08 01:11:27;;;;;;;2.03;0.60;;;5.30;99.90;;;;;;5014218;28;20046;-74
2022/04/08 01:13:53;;;;;;;3.15;0.65;;;5.40;99.90;;;;;;5015337;28;20038;-74
2022/04/08 01:16:19;;;;;;;6.15;1.25;;;5.40;99.90;;;;;;5014162;28;20084;-75
2022/04/08 01:18:45;;;;;;;5.07;0.70;;;5.50;99.90;;;;;;5014085;28;20041;-74
2022/04/08 01:21:11;;;;;;;4.43;0.80;;;5.40;99.90;;;;;;5017338;28;20463;-74
2022/04/08 01:23:37;;;;;;;5.18;0.80;;;5.30;99.90;;;;;;5001054;28;20049;-74
2022/04/08 01:26:06;;;;;;;3.45;0.60;;;5.30;99.90;;;;;;5018366;28;20060;-74
2022/04/08 01:28:33;;;;;;;5.72;0.68;;;5.30;99.90;;;;;;4989848;28;20121;-74
2022/04/08 01:30:59;;;;;;;3.47;0.80;;;5.10;99.90;;;;;;4999219;28;20038;-74
2022/04/08 01:33:24;;;;;;;5.03;0.70;;;4.90;99.90;;;;;;5001812;28;20041;-74
2022/04/08 01:35:50;;;;;;;4.53;0.85;;;4.90;99.90;;;;;;5001831;28;20048;-74
2022/04/08 01:38:16;;;;;;;5.32;1.13;;;4.90;99.90;;;;;;5001100;28;20126;-74
2022/04/08 01:40:41;;;;;;;5.15;1.10;;;4.90;99.90;;;;;;5018688;28;20045;-74
2022/04/08 01:43:07;;;;;;;4.90;0.90;;;4.90;99.90;;;;;;5017665;28;20037;-74
2022/04/08 01:45:33;;;;;;;5.47;1.00;;;4.80;99.90;;;;;;5018962;28;20041;-73
2022/04/08 01:47:58;;;;;;;8.88;1.23;;;4.80;99.90;;;;;;5016732;28;20497;-74
2022/04/08 01:50:24;;;;;;;8.65;1.23;;;4.90;99.90;;;;;;5018549;28;20037;-73
2022/04/08 01:52:49;;;;;;;4.15;0.90;;;4.90;99.90;;;;;;5017908;28;20029;-74
2022/04/08 01:55:15;;;;;;;4.82;1.17;;;5.00;99.90;;;;;;5001196;28;20040;-74
2022/04/08 01:57:41;;;;;;;5.05;1.08;;;5.00;99.90;;;;;;5001062;28;20046;-73
2022/04/08 02:00:11;;;;;;;5.78;0.90;;;5.00;99.90;;;;;;5015250;28;20049;-73
2022/04/08 02:02:38;;;;;;;5.80;1.10;;;4.90;99.90;;;;;;4997963;28;20045;-74
2022/04/08 02:05:04;;;;;;;8.35;1.08;;;5.00;99.90;;;;;;4999912;28;20541;-75
2022/04/08 02:07:30;;;;;;;7.78;1.20;;;4.90;99.90;;;;;;5014244;28;20121;-74
2022/04/08 02:09:55;;;;;;;9.52;1.10;;;4.80;99.90;;;;;;5018445;28;20040;-74
2022/04/08 02:12:21;;;;;;;8.60;1.10;;;4.80;99.90;;;;;;5015197;28;20033;-73
2022/04/08 02:14:47;;;;;;;7.43;1.10;;;4.70;99.90;;;;;;4982292;28;20041;-74
2022/04/08 02:17:12;;;;;;;6.25;1.45;;;4.70;99.90;;;;;;4998476;28;20041;-74
2022/04/08 02:19:38;;;;;;;6.18;1.02;;;4.70;99.90;;;;;;4998722;28;20073;-74
2022/04/08 02:22:05;;;;;;;7.63;1.38;;;4.80;99.90;;;;;;4998203;28;20042;-73
2022/04/08 02:24:32;;;;;;;6.93;1.80;;;4.80;99.90;;;;;;4984961;28;20125;-74
2022/04/08 02:26:58;;;;;;;6.38;1.30;;;4.80;99.90;;;;;;5017870;28;20042;-74
2022/04/08 02:29:23;;;;;;;6.32;1.20;;;4.70;99.90;;;;;;5017879;28;20615;-74
2022/04/08 02:31:50;;;;;;;8.30;1.25;;;4.70;99.90;;;;;;5017302;28;20041;-74
2022/04/08 02:34:15;;;;;;;7.28;1.17;;;4.80;99.90;;;;;;5017792;28;20607;-74
2022/04/08 02:36:41;;;;;;;8.93;1.10;;;4.80;99.90;;;;;;5015739;28;20066;-74
2022/04/08 02:39:08;;;;;;;7.93;1.45;;;4.60;99.90;;;;;;5001127;28;20100;-74
2022/04/08 02:41:33;;;;;;;6.25;1.25;;;4.50;99.90;;;;;;5000925;28;20045;-75
2022/04/08 02:43:59;;;;;;;7.68;1.17;;;4.50;99.90;;;;;;5017586;28;20171;-74
2022/04/08 02:46:24;;;;;;;7.80;1.40;;;4.70;99.90;;;;;;5001260;28;20489;-74
2022/04/08 02:48:50;;;;;;;4.47;0.90;;;4.60;99.90;;;;;;5017617;28;20120;-75
2022/04/08 02:51:16;;;;;;;5.13;0.90;;;4.70;99.90;;;;;;5001122;28;20046;-74
2022/04/08 02:53:41;;;;;;;6.45;1.08;;;4.60;99.90;;;;;;5001235;28;20044;-74
2022/04/08 02:56:07;;;;;;;6.38;1.17;;;4.50;99.90;;;;;;5001079;28;20037;-74
2022/04/08 02:58:32;;;;;;;5.50;1.00;;;4.50;99.90;;;;;;5000991;28;20053;-74
2022/04/08 03:00:59;;;;;;;4.70;0.98;;;4.40;99.90;;;;;;5017309;28;20120;-75
2022/04/08 03:03:27;;;;;;;5.47;1.02;;;4.30;99.90;;;;;;5001192;28;20437;-74
2022/04/08 03:05:54;;;;;;;7.13;1.30;;;4.30;99.90;;;;;;5000845;28;20038;-74
2022/04/08 03:08:20;;;;;;;8.05;1.75;;;4.30;99.90;;;;;;5017122;28;20128;-74
2022/04/08 03:10:46;;;;;;;4.25;0.85;;;4.40;99.90;;;;;;5000690;28;20076;-74
2022/04/08 03:13:12;;;;;;;8.35;1.02;;;4.60;99.90;;;;;;5012237;28;20120;-74
2022/04/08 03:15:39;;;;;;;6.30;1.38;;;4.40;99.90;;;;;;4985465;28;20045;-73
2022/04/08 03:18:05;;;;;;;5.03;1.30;;;4.40;99.90;;;;;;4984440;28;20128;-74
2022/04/08 03:20:30;;;;;;;8.70;1.10;;;4.20;99.90;;;;;;5013208;28;20041;-74
2022/04/08 03:22:56;;;;;;;7.75;1.30;;;4.30;99.90;;;;;;5016602;28;20111;-73
2022/04/08 03:25:21;;;;;;;4.55;0.88;;;4.20;99.90;;;;;;5016953;28;20041;-74
2022/04/08 03:27:47;;;;;;;8.07;1.27;;;4.10;99.90;;;;;;4999651;28;20030;-74
2022/04/08 03:30:13;;;;;;;10.82;1.65;;;4.20;99.90;;;;;;4980911;28;20088;-74
2022/04/08 03:32:38;;;;;;;12.07;1.95;;;4.20;99.90;;;;;;4996583;28;20041;-74
2022/04/08 03:35:05;;;;;;;5.63;1.10;;;4.30;99.90;;;;;;5010280;28;20084;-74
2022/04/08 03:37:30;;;;;;;6.53;0.85;;;4.30;99.90;;;;;;5016628;28;20073;-74
2022/04/08 03:39:56;;;;;;;10.02;1.27;;;4.50;99.90;;;;;;4994054;28;20080;-74
2022/04/08 03:42:22;;;;;;;3.75;1.10;;;4.50;99.90;;;;;;4980473;28;20125;-74
2022/04/08 03:44:49;;;;;;;8.95;1.40;;;4.60;99.90;;;;;;4995920;28;20470;-74
2022/04/08 03:47:15;;;;;;;7.82;1.00;;;4.70;99.90;;;;;;4996770;28;20041;-74
2022/04/08 03:49:41;;;;;;;6.40;1.30;;;4.60;99.90;;;;;;4980625;28;20549;-74
2022/04/08 03:52:09;;;;;;;8.98;1.33;;;4.50;99.90;;;;;;5002871;28;20140;-74
2022/04/08 03:54:39;;;;;;;9.85;1.35;;;4.50;99.90;;;;;;4999956;28;20041;-74
2022/04/08 03:57:05;;;;;;;8.43;1.42;;;4.50;99.90;;;;;;5016448;28;20128;-74
2022/04/08 03:59:31;;;;;;;9.25;1.25;;;4.50;99.90;;;;;;5016492;28;20552;-74
2022/04/08 04:01:57;;;;;;;8.13;1.20;;;4.40;99.90;;;;;;4999637;28;20039;-74
2022/04/08 04:04:23;;;;;;;11.43;1.65;;;4.40;99.90;;;;;;4999850;28;20121;-74
2022/04/08 04:06:50;;;;;;;11.25;1.55;;;4.50;99.90;;;;;;5016197;28;20073;-74
2022/04/08 04:09:16;;;;;;;4.55;0.98;;;4.60;99.90;;;;;;5016077;28;20092;-73
2022/04/08 04:11:41;;;;;;;4.85;0.82;;;4.50;99.90;;;;;;5016089;28;20436;-74
2022/04/08 04:14:07;;;;;;;4.28;1.00;;;4.30;99.90;;;;;;5015975;28;20048;-74
2022/04/08 04:16:33;;;;;;;3.78;0.93;;;4.20;99.90;;;;;;5015946;28;20049;-74
2022/04/08 04:18:59;;;;;;;5.43;1.25;;;4.20;99.90;;;;;;5015966;28;20033;-74
2022/04/08 04:21:24;;;;;;;2.28;0.75;;;4.10;99.90;;;;;;5016041;28;20094;-73
2022/04/08 04:23:51;;;;;;;1.10;0.65;;;4.00;99.90;;;;;;5015636;28;20136;-74
2022/04/08 04:26:16;;;;;;;7.20;1.10;;;4.10;99.90;;;;;;5015777;28;20160;-74
2022/04/08 04:28:42;;;;;;;3.05;1.23;;;4.10;99.90;;;;;;5008923;28;20497;-74
2022/04/08 04:31:07;;;;;;;2.75;0.95;;;4.20;99.90;;;;;;4980011;28;20395;-74
2022/04/08 04:33:33;;;;;;;4.40;1.00;;;4.10;99.90;;;;;;4996274;28;20052;-74
2022/04/08 04:35:59;;;;;;;3.63;1.17;;;4.10;99.90;;;;;;5001108;28;20048;-74
2022/04/08 04:38:25;;;;;;;3.45;0.90;;;4.00;99.90;;;;;;5009086;28;20637;-74
2022/04/08 04:40:51;;;;;;;4.53;1.85;;;4.00;99.90;;;;;;4999252;28;20497;-73
2022/04/08 04:43:16;;;;;;;2.25;0.80;;;4.10;99.90;;;;;;4999226;28;20040;-74
2022/04/08 04:45:43;;;;;;;4.90;1.15;;;3.90;99.90;;;;;;5000773;28;20119;-74
2022/04/08 04:48:13;;;;;;;4.28;1.00;;;3.80;99.90;;;;;;5008273;28;20069;-74
2022/04/08 04:50:39;;;;;;;3.13;0.80;;;3.80;99.90;;;;;;5015412;28;20048;-74
2022/04/08 04:53:05;;;;;;;4.10;1.20;;;3.80;99.90;;;;;;5012598;28;20467;-74
2022/04/08 04:55:30;;;;;;;3.03;0.90;;;3.80;99.90;;;;;;4995410;28;20038;-74
2022/04/08 04:57:56;;;;;;;2.67;0.70;;;3.80;99.90;;;;;;4995855;28;20085;-74
2022/04/08 05:00:22;;;;;;;3.65;0.85;;;3.80;99.90;;;;;;4995750;28;20449;-74
2022/04/08 05:02:48;;;;;;;3.17;0.93;;;3.80;99.90;;;;;;4979443;28;20037;-74
2022/04/08 05:05:14;;;;;;;2.55;0.82;;;3.70;99.90;;;;;;4998187;28;20057;-74
2022/04/08 05:07:40;;;;;;;3.17;0.82;;;3.80;99.90;;;;;;5015519;28;20046;-74
2022/04/08 05:10:07;;;;;;;3.70;0.85;;;3.80;99.90;;;;;;4998953;28;20033;-74
2022/04/08 05:12:35;;;;;;;6.10;1.60;;;3.80;99.90;;;;;;4998870;28;20049;-74
2022/04/08 05:15:02;;;;;;;4.00;1.00;;;3.90;99.90;;;;;;4998917;28;20073;-74
2022/04/08 05:17:28;;;;;;;1.88;0.85;;;4.00;99.90;;;;;;4999187;28;20413;-74
2022/04/08 05:19:54;;;;;;;2.85;0.80;;;3.90;99.90;;;;;;5015212;28;20049;-74
2022/04/08 05:22:20;;;;;;;4.70;0.80;;;4.20;99.90;;;;;;5014974;28;20133;-74
2022/04/08 05:24:45;;;;;;;5.63;1.10;;;4.10;99.90;;;;;;5015143;28;20517;-74
2022/04/08 05:27:11;;;;;;;2.60;1.00;;;4.00;99.90;;;;;;5015242;28;20037;-74
2022/04/08 05:29:36;;;;;;;5.07;1.45;;;4.10;99.90;;;;;;5015218;28;20044;-74
2022/04/08 05:32:02;;;;;;;5.28;1.13;;;4.00;99.90;;;;;;5011461;28;20121;-74
2022/04/08 05:34:27;;;;;;;4.07;1.40;;;3.90;99.90;;;;;;5011689;28;20042;-74
2022/04/08 05:36:53;;;;;;;5.43;1.27;;;4.00;99.90;;;;;;5011750;28;20128;-74
2022/04/08 05:39:19;;;;;;;3.33;1.20;;;4.10;99.90;;;;;;5031874;28;20048;-74
2022/04/08 05:41:44;;;;;;;4.68;1.30;;;4.10;99.90;;;;;;5032418;28;20091;-74
2022/04/08 05:44:10;;;;;;;5.78;1.20;;;4.20;99.90;;;;;;4986414;28;20039;-75
2022/04/08 05:46:35;;;;;;;3.75;1.17;;;4.20;99.90;;;;;;5019180;28;20065;-74
2022/04/08 05:49:01;;;;;;;6.20;1.40;;;4.30;99.90;;;;;;4996192;28;20041;-74
2022/04/08 05:51:27;;;;;;;1.50;0.70;;;4.40;99.90;;;;;;4997086;28;20037;-74
2022/04/08 05:53:52;;;;;;;5.50;1.13;;;4.50;99.90;;;;;;5013771;28;20071;-74
2022/04/08 05:56:18;;;;;;;6.85;1.33;;;4.50;99.90;;;;;;4997306;28;20129;-74
2022/04/08 05:58:43;;;;;;;6.85;1.42;;;4.30;99.90;;;;;;5014692;28;20083;-74
2022/04/08 06:01:10;;;;;;;6.05;1.35;;;4.50;99.90;;;;;;5014743;28;20030;-74
2022/04/08 06:03:36;;;;;;;5.38;1.25;;;4.50;99.90;;;;;;4994739;28;20041;-74
2022/04/08 06:06:01;;;;;;;8.65;1.67;;;4.60;99.90;;;;;;5007231;28;20044;-74
2022/04/08 06:08:27;;;;;;;7.20;1.50;;;4.70;99.90;;;;;;5016602;28;20025;-74
2022/04/08 06:10:53;;;;;;;7.18;1.73;;;4.70;99.90;;;;;;5002178;28;20069;-73
2022/04/08 06:13:24;;;;;;;7.55;1.52;;;5.00;99.90;;;;;;5000260;28;21009;-74
2022/04/08 06:15:50;;;;;;;6.97;1.60;;;4.80;99.90;;;;;;4995546;28;20046;-74
2022/04/08 06:18:18;;;;;;;3.17;1.20;;;4.60;99.90;;;;;;5008469;28;20120;-74
2022/04/08 06:20:44;;;;;;;4.68;1.00;;;4.70;99.90;;;;;;5016622;28;20485;-74
2022/04/08 06:23:09;;;;;;;5.35;1.13;;;4.80;99.90;;;;;;5000371;28;20062;-74
2022/04/08 06:25:35;;;;;;;3.58;1.30;;;4.80;99.90;;;;;;5017958;28;20045;-74
2022/04/08 06:28:03;;;;;;;5.50;1.20;;;4.80;99.90;;;;;;5016672;28;20501;-76
2022/04/08 06:30:29;;;;;;;4.05;1.30;;;4.80;99.90;;;;;;5016851;28;20049;-75
2022/04/08 06:32:55;;;;;;;4.72;1.55;;;4.80;99.90;;;;;;5016044;28;20458;-75
2022/04/08 06:35:22;;;;;;;2.20;1.17;;;4.90;99.90;;;;;;5017611;28;20132;-75
2022/04/08 06:37:47;;;;;;;3.78;1.00;;;5.00;99.90;;;;;;5015285;28;20037;-74
2022/04/08 06:40:13;;;;;;;3.33;0.90;;;5.30;99.90;;;;;;4997770;28;20084;-74
2022/04/08 06:42:39;;;;;;;2.85;1.20;;;5.20;99.90;;;;;;5013599;28;20050;-75
2022/04/08 06:45:06;;;;;;;6.68;1.70;;;5.20;99.90;;;;;;5017455;28;20041;-74
2022/04/08 06:47:31;;;;;;;6.03;1.65;;;5.10;99.90;;;;;;5015986;28;20052;-74
2022/04/08 06:49:57;;;;;;;5.47;1.45;;;5.20;99.90;;;;;;5035224;28;20037;-75
2022/04/08 06:52:23;;;;;;;3.83;1.23;;;5.20;99.90;;;;;;5033779;28;20042;-74
2022/04/08 06:54:48;;;;;;;3.47;1.30;;;5.20;99.90;;;;;;5015135;28;20044;-75
2022/04/08 06:57:14;;;;;;;2.75;1.20;;;5.30;99.90;;;;;;5014873;28;20508;-75
2022/04/08 06:59:41;;;;;;;3.00;1.70;;;5.40;99.90;;;;;;5020538;28;20045;-74
2022/04/08 07:02:07;;;;;;;4.18;1.30;;;5.50;99.90;;;;;;5025483;28;20406;-75
2022/04/08 07:04:33;;;;;;;6.18;1.33;;;5.60;99.90;;;;;;5005791;28;20082;-75
2022/04/08 07:06:58;;;;;;;4.40;1.30;;;5.70;99.90;;;;;;5015604;28;20508;-74
2022/04/08 07:09:24;;;;;;;4.45;1.33;;;5.60;99.90;;;;;;5017233;28;20401;-75
2022/04/08 07:11:50;;;;;;;4.85;1.40;;;5.60;99.90;;;;;;5015428;28;20037;-75
2022/04/08 07:14:15;;;;;;;1.98;0.75;;;5.60;99.90;;;;;;5016611;28;20083;-74
2022/04/08 07:16:43;;;;;;;6.32;1.13;;;6.00;99.90;;;;;;5004118;28;20507;-75
2022/04/08 07:19:12;;;;;;;3.10;1.10;;;6.00;99.90;;;;;;5015015;28;20056;-74
2022/04/08 07:21:38;;;;;;;6.13;1.40;;;5.80;99.90;;;;;;5016827;28;20040;-74
2022/04/08 07:24:04;;;;;;;6.18;1.30;;;5.90;99.90;;;;;;4995541;28;20058;-74
2022/04/08 07:26:29;;;;;;;6.13;1.60;;;6.10;99.90;;;;;;4998745;28;20037;-75
2022/04/08 07:28:55;;;;;;;10.25;1.73;;;6.10;99.90;;;;;;4995564;28;20046;-74
2022/04/08 07:31:21;;;;;;;3.53;0.90;;;6.00;99.90;;;;;;5011306;28;20037;-74
2022/04/08 07:33:47;;;;;;;4.78;1.63;;;6.20;99.90;;;;;;5008506;28;20501;-74
2022/04/08 07:36:13;;;;;;;3.17;1.00;;;6.10;99.90;;;;;;5000131;28;20052;-75
2022/04/08 07:38:38;;;;;;;3.75;1.17;;;5.90;99.90;;;;;;4997569;28;20133;-75
2022/04/08 07:41:04;;;;;;;3.53;1.08;;;5.90;99.90;;;;;;5016090;28;20041;-74
2022/04/08 07:43:30;;;;;;;6.60;1.30;;;5.80;99.90;;;;;;5015331;28;20060;-75
2022/04/08 07:45:55;;;;;;;5.50;2.58;;;5.90;99.90;;;;;;5015865;28;20064;-75
2022/04/08 07:48:21;;;;;;;3.50;1.17;;;6.00;99.90;;;;;;5014807;28;20095;-75
2022/04/08 07:50:47;;;;;;;5.40;1.38;;;6.00;99.90;;;;;;5016223;28;20041;-75
2022/04/08 07:53:12;;;;;;;4.15;1.42;;;6.20;99.90;;;;;;4998953;28;20034;-75
2022/04/08 07:55:39;;;;;;;3.38;1.00;;;6.40;99.90;;;;;;5015143;28;20132;-75
2022/04/08 07:58:05;;;;;;;7.00;1.60;;;6.60;99.90;;;;;;5013147;28;20080;-75
2022/04/08 08:00:34;;;;;;;6.00;1.70;;;6.60;99.90;;;;;;5015980;28;20152;-75
2022/04/08 08:03:00;;;;;;;3.80;1.23;;;6.50;99.90;;;;;;5014669;28;20037;-75
2022/04/08 08:05:27;;;;;;;6.47;1.60;;;6.30;99.90;;;;;;4999202;28;20128;-75
2022/04/08 08:07:53;;;;;;;3.80;1.20;;;6.50;99.90;;;;;;5014927;28;20025;-75
2022/04/08 08:10:40;;;;;;;5.72;1.45;;;6.50;99.90;;;;;;4999256;28;20041;-75
2022/04/08 08:13:05;;;;;;;7.32;1.50;;;6.20;99.90;;;;;;4998815;28;20508;-75
2022/04/08 08:15:32;;;;;;;4.78;1.73;;;6.30;99.90;;;;;;5014774;28;20045;-75
2022/04/08 08:17:58;;;;;;;6.68;1.70;;;6.20;99.90;;;;;;5011520;28;20056;-75
2022/04/08 08:20:25;;;;;;;4.70;1.17;;;6.00;99.90;;;;;;5015791;28;20045;-75
2022/04/08 08:22:51;;;;;;;6.65;1.80;;;6.10;99.90;;;;;;5009645;28;20042;-75
2022/04/08 08:25:18;;;;;;;6.40;1.70;;;6.40;99.90;;;;;;4995954;28;20375;-75
2022/04/08 08:27:53;;;;;;;7.43;1.85;;;6.50;99.90;;;;;;5011481;28;20065;-75
2022/04/08 08:30:18;;;;;;;5.97;1.60;;;6.60;99.90;;;;;;5011529;28;20034;-75
2022/04/08 08:32:46;;;;;;;3.67;1.35;;;6.90;99.90;;;;;;4993858;28;20383;-74
2022/04/08 08:35:14;;;;;;;5.72;1.33;;;7.10;99.90;;;;;;4992829;28;20042;-75
2022/04/08 08:37:40;;;;;;;5.85;1.92;;;7.40;99.90;;;;;;5003978;28;20060;-75
2022/04/08 08:40:08;;;;;;;6.47;1.80;;;7.40;99.90;;;;;;5007086;28;20128;-75
2022/04/08 08:42:37;;;;;;;8.77;1.80;;;7.30;99.90;;;;;;4994237;28;20073;-75
2022/04/08 08:45:04;;;;;;;9.88;2.42;;;7.40;99.90;;;;;;4995401;28;20045;-74
2022/04/08 08:47:31;;;;;;;10.80;2.30;;;7.70;99.90;;;;;;5010485;28;20065;-75
2022/04/08 08:49:57;;;;;;;8.13;1.88;;;7.70;99.90;;;;;;5010802;28;20116;-75
2022/04/08 08:52:23;;;;;;;9.20;2.03;;;7.60;99.90;;;;;;5010459;28;20385;-75
2022/04/08 08:54:50;;;;;;;6.45;2.10;;;7.50;99.90;;;;;;5011506;28;20493;-75
2022/04/08 08:57:20;;;;;;;9.43;1.95;;;7.50;99.90;;;;;;4994492;28;20510;-75
2022/04/08 08:59:46;;;;;;;6.13;1.63;;;7.50;99.90;;;;;;5005376;28;20041;-75
2022/04/08 09:02:19;;;;;;;8.20;1.90;;;7.60;99.90;;;;;;5002275;28;20042;-75
2022/04/08 09:04:45;;;;;;;7.20;1.75;;;7.50;99.90;;;;;;5008466;28;20129;-75
2022/04/08 09:07:24;;;;;;;6.30;1.50;;;7.50;99.90;;;;;;4990753;28;20049;-75
2022/04/08 09:09:55;;;;;;;4.90;1.55;;;7.50;99.90;;;;;;5009834;28;20236;-75
2022/04/08 09:12:24;;;;;;;7.70;1.58;;;7.30;99.90;;;;;;5012030;28;20112;-75
2022/04/08 09:14:51;;;;;;;4.95;1.48;;;7.30;99.90;;;;;;5010257;28;20077;-75
2022/04/08 09:17:18;;;;;;;3.67;1.30;;;7.40;99.90;;;;;;5011341;28;20401;-75
2022/04/08 09:19:58;;;;;;;8.55;1.55;;;7.70;99.90;;;;;;4994035;28;20121;-75
2022/04/08 09:22:34;;;;;;;4.70;1.42;;;7.70;99.90;;;;;;5002635;28;20038;-74
2022/04/08 09:25:26;;;;;;;6.90;1.60;;;7.80;99.90;;;;;;5006352;28;20045;-75
2022/04/08 09:27:55;;;;;;;4.13;1.25;;;7.80;99.90;;;;;;5002926;28;20061;-75
2022/04/08 09:30:20;;;;;;;4.97;1.38;;;7.80;99.90;;;;;;5031563;28;20547;-75
2022/04/08 09:32:46;;;;;;;5.72;1.67;;;8.00;99.90;;;;;;5013047;28;20046;-75
2022/04/08 09:35:24;;;;;;;7.32;1.70;;;8.00;99.90;;;;;;5012123;28;20045;-75
2022/04/08 09:37:59;;;;;;;4.78;1.27;;;8.10;99.90;;;;;;4999405;28;20100;-75
2022/04/08 09:40:25;;;;;;;6.20;1.50;;;8.20;99.90;;;;;;5014135;28;20389;-75
2022/04/08 09:42:51;;;;;;;7.95;1.83;;;8.30;99.90;;;;;;5011270;28;20056;-75
2022/04/08 09:45:29;;;;;;;9.35;1.67;;;8.30;99.90;;;;;;5016879;28;20493;-75
2022/04/08 09:47:55;;;;;;;5.85;1.20;;;8.60;99.90;;;;;;5016573;28;20095;-75
2022/04/08 09:50:20;;;;;;;5.55;1.40;;;8.90;99.90;;;;;;4998699;28;20046;-75
2022/04/08 09:52:46;;;;;;;8.48;2.08;;;9.00;99.90;;;;;;4986011;28;20044;-76
2022/04/08 09:55:15;;;;;;;8.57;2.03;;;8.80;99.90;;;;;;4998134;28;20046;-76
2022/04/08 09:57:41;;;;;;;10.70;1.88;;;8.90;99.90;;;;;;4998552;28;20132;-76
2022/04/08 10:00:07;;;;;;;8.85;2.33;;;8.90;99.90;;;;;;5002070;28;20141;-75
2022/04/08 10:02:35;;;;;;;8.40;1.77;;;8.90;99.90;;;;;;5001527;28;20041;-76
2022/04/08 10:05:02;;;;;;;6.55;1.58;;;8.80;99.90;;;;;;5017862;28;20049;-76
2022/04/08 10:07:28;;;;;;;6.32;1.67;;;8.90;99.90;;;;;;5018176;28;20033;-76
2022/04/08 10:10:12;;;;;;;6.93;1.60;;;8.80;99.90;;;;;;5017849;28;20489;-76
2022/04/08 10:12:58;;;;;;;6.35;1.63;;;8.60;99.90;;;;;;5018031;28;20067;-76
2022/04/08 10:15:38;;;;;;;7.75;1.40;;;8.60;99.90;;;;;;5001092;28;20052;-75
2022/04/08 10:18:05;;;;;;;10.23;1.52;;;8.50;99.90;;;;;;4998511;28;20394;-75
2022/04/08 10:20:35;;;;;;;5.55;1.30;;;8.70;99.90;;;;;;4998304;28;20037;-76
2022/04/08 10:23:05;;;;;;;9.85;1.50;;;8.80;99.90;;;;;;4978297;28;20050;-76
2022/04/08 10:25:48;;;;;;;8.10;1.27;;;8.70;99.90;;;;;;4978672;28;20047;-75
2022/04/08 10:28:14;;;;;;;6.78;1.35;;;8.90;99.90;;;;;;4978371;28;20038;-75
2022/04/08 10:30:49;;;;;;;12.00;1.60;;;9.10;99.90;;;;;;4978335;28;20049;-76
2022/04/08 10:33:29;;;;;;;7.85;1.48;;;9.40;99.90;;;;;;5004797;28;20046;-76
2022/04/08 10:35:59;;;;;;;4.18;1.25;;;9.50;99.90;;;;;;5013851;28;20038;-76
2022/04/08 10:38:35;;;;;;;6.38;1.10;;;9.50;99.90;;;;;;4998021;28;20042;-75
2022/04/08 10:41:01;;;;;;;3.58;0.80;;;9.50;99.90;;;;;;5014151;28;20145;-76
2022/04/08 10:43:27;;;;;;;4.68;1.08;;;9.40;99.90;;;;;;5014176;28;20088;-76
2022/04/08 10:45:56;;;;;;;3.03;0.90;;;9.30;99.90;;;;;;5013773;28;20037;-75
2022/04/08 10:48:23;;;;;;;8.10;1.60;;;9.20;99.90;;;;;;5015094;28;20057;-75
2022/04/08 10:50:50;;;;;;;5.50;1.08;;;9.10;99.90;;;;;;4997768;28;20047;-76
2022/04/08 10:53:21;;;;;;;7.93;1.60;;;9.00;99.90;;;;;;5012997;28;20053;-76
2022/04/08 10:55:55;;;;;;;5.40;1.40;;;8.90;99.90;;;;;;5013552;28;20044;-76
2022/04/08 10:58:34;;;;;;;7.80;1.80;;;9.00;99.90;;;;;;4997760;28;20042;-75
2022/04/08 11:01:00;;;;;;;8.68;1.77;;;9.00;99.90;;;;;;5013573;28;20034;-75
2022/04/08 11:03:27;;;;;;;6.10;1.50;;;9.00;99.90;;;;;;5013672;28;20045;-75
2022/04/08 11:05:53;;;;;;;7.30;1.85;;;9.30;99.90;;;;;;4997382;28;20129;-75
2022/04/08 11:08:21;;;;;;;8.07;1.90;;;9.40;99.90;;;;;;5013634;28;20610;-75
2022/04/08 11:10:55;;;;;;;7.13;1.83;;;9.60;99.90;;;;;;5013458;28;20049;-75
2022/04/08 11:13:21;;;;;;;8.90;1.88;;;9.80;99.90;;;;;;5013315;28;20054;-75
2022/04/08 11:15:46;;;;;;;5.85;1.38;;;10.00;99.90;;;;;;4997341;28;20034;-75
2022/04/08 11:18:12;;;;;;;5.93;1.38;;;9.70;99.90;;;;;;4995118;28;20124;-75
2022/04/08 11:20:37;;;;;;;3.83;1.05;;;9.90;99.90;;;;;;4993874;28;20034;-75
2022/04/08 11:23:03;;;;;;;6.20;1.30;;;9.80;99.90;;;;;;4993984;28;20101;-75
2022/04/08 11:25:30;;;;;;;5.50;1.10;;;10.00;99.90;;;;;;4996927;28;20047;-75
2022/04/08 11:28:02;;;;;;;5.18;1.48;;;10.10;99.90;;;;;;4993473;28;20034;-76
2022/04/08 11:30:29;;;;;;;8.70;1.70;;;9.80;99.90;;;;;;4993883;28;20034;-76
2022/04/08 11:32:55;;;;;;;5.05;1.10;;;9.60;99.90;;;;;;4993643;28;20506;-76
2022/04/08 11:35:21;;;;;;;3.50;1.08;;;9.40;99.90;;;;;;4993145;28;20061;-76
2022/04/08 11:37:47;;;;;;;4.72;1.23;;;9.10;99.90;;;;;;4992450;28;20038;-76
2022/04/08 11:40:17;;;;;;;2.95;1.00;;;8.90;99.90;;;;;;4995458;28;20445;-76
2022/04/08 11:42:46;;;;;;;3.83;0.98;;;8.80;99.90;;;;;;5012773;28;20045;-75
2022/04/08 11:45:13;;;;;;;5.82;0.90;;;8.80;99.90;;;;;;5012552;28;20038;-76
2022/04/08 11:47:46;;;;;;;2.63;0.80;;;8.70;99.90;;;;;;4977177;28;20081;-75
2022/04/08 11:50:12;;;;;;;6.18;1.13;;;8.70;99.90;;;;;;4993164;28;20042;-75
2022/04/08 11:52:38;;;;;;;4.22;0.75;;;8.90;99.90;;;;;;4993080;28;20055;-75
2022/04/08 11:55:09;;;;;;;3.55;0.77;;;8.90;99.90;;;;;;4976795;28;20138;-75
2022/04/08 11:57:37;;;;;;;6.68;1.20;;;8.90;99.90;;;;;;4997297;28;20588;-75
2022/04/08 12:00:08;;;;;;;4.63;1.08;;;8.80;99.90;;;;;;5012554;28;20042;-75
2022/04/08 12:02:36;;;;;;;5.03;1.00;;;8.70;99.90;;;;;;5012520;28;20441;-75
2022/04/08 12:05:02;;;;;;;5.25;1.20;;;8.90;99.90;;;;;;5012137;28;20379;-75
2022/04/08 12:07:30;;;;;;;2.65;0.90;;;9.20;99.90;;;;;;5012231;28;20045;-75
2022/04/08 12:10:00;;;;;;;5.40;1.02;;;9.30;99.90;;;;;;5012817;28;20052;-75
2022/04/08 12:12:28;;;;;;;7.03;1.48;;;9.40;99.90;;;;;;5012748;28;20092;-75
2022/04/08 12:14:54;;;;;;;4.50;1.00;;;9.60;99.90;;;;;;4995751;28;20050;-75
2022/04/08 12:17:20;;;;;;;3.85;0.93;;;9.60;99.90;;;;;;5001615;28;20069;-75
2022/04/08 12:19:51;;;;;;;5.82;1.60;;;9.70;99.90;;;;;;4976419;28;20070;-75
2022/04/08 12:22:17;;;;;;;3.63;1.08;;;9.70;99.90;;;;;;4976381;28;20065;-75
2022/04/08 12:24:44;;;;;;;3.10;1.08;;;9.80;99.90;;;;;;4976165;28;20136;-75
2022/04/08 12:27:13;;;;;;;5.40;1.00;;;9.90;99.90;;;;;;4993020;28;20026;-75
2022/04/08 12:29:40;;;;;;;4.70;1.00;;;10.00;99.90;;;;;;4992396;28;20089;-75
2022/04/08 12:32:15;;;;;;;4.80;1.20;;;10.10;99.90;;;;;;5002840;28;20073;-75
2022/04/08 12:34:44;;;;;;;4.15;0.90;;;10.00;99.90;;;;;;4995653;28;20095;-76
2022/04/08 12:37:10;;;;;;;3.67;0.90;;;9.90;99.90;;;;;;4995834;28;20393;-75
2022/04/08 12:39:35;;;;;;;5.00;1.20;;;10.10;99.90;;;;;;5012207;28;20128;-75
2022/04/08 12:42:02;;;;;;;5.72;1.13;;;10.30;99.90;;;;;;5011749;28;20452;-76
2022/04/08 12:44:27;;;;;;;5.18;1.30;;;10.50;99.90;;;;;;5011841;28;20038;-76
2022/04/08 12:46:55;;;;;;;6.93;1.38;;;10.50;99.90;;;;;;4995766;28;20478;-75
2022/04/08 12:49:21;;;;;;;5.78;1.13;;;10.30;99.90;;;;;;5011573;28;20081;-75
2022/04/08 12:51:47;;;;;;;4.18;1.00;;;10.20;95.60;;;;;;5011774;28;20084;-76
2022/04/08 12:54:12;;;;;;;2.90;0.90;;;10.40;99.90;;;;;;5011681;28;20042;-75